createdAt,value
2023-05-14T00:01:36.258Z,101660.53
2023-05-14T00:04:08.709Z,101664.59
2023-05-14T00:06:41.159Z,101664.59
2023-05-14T00:09:14.016Z,101663.06
2023-05-14T00:11:46.652Z,101663.06
2023-05-14T00:14:19.146Z,101661.47
2023-05-14T00:16:51.676Z,101659.94
2023-05-14T00:19:24.109Z,101664.75
2023-05-14T00:21:56.656Z,101659.16
2023-05-14T00:24:29.165Z,101646.84
2023-05-14T00:27:01.714Z,101649.66
2023-05-14T00:29:34.324Z,101655.25
2023-05-14T00:32:07.130Z,101652.94
2023-05-14T00:34:39.663Z,101636.09
2023-05-14T00:37:12.104Z,101648.13
2023-05-14T00:39:44.670Z,101645.78
2023-05-14T00:42:17.230Z,101633.03
2023-05-14T00:44:49.819Z,101638.63
2023-05-14T00:47:22.480Z,101631.47
2023-05-14T00:49:55.365Z,101631.47
2023-05-14T00:52:27.979Z,101641.13
2023-05-14T00:55:04.149Z,101631.91
2023-05-14T00:57:37.886Z,101631.16
2023-05-14T01:00:10.898Z,101632.41
2023-05-14T01:02:43.739Z,101633.66
2023-05-14T01:05:17.457Z,101636.44
2023-05-14T01:08:00.905Z,101642.06
2023-05-14T01:10:42.442Z,101626.97
2023-05-14T01:13:35.095Z,101626.19
2023-05-14T01:16:12.979Z,101624.63
2023-05-14T01:18:49.216Z,101626.66
2023-05-14T01:21:38.517Z,101617.47
2023-05-14T01:24:11.196Z,101622.31
2023-05-14T01:26:43.793Z,101619.97
2023-05-14T01:29:22.429Z,101625.59
2023-05-14T01:31:58.933Z,101625.28
2023-05-14T01:34:32.794Z,101623.25
2023-05-14T01:37:29.986Z,101622.47
2023-05-14T01:40:04.185Z,101621.41
2023-05-14T01:42:38.433Z,101615.03
2023-05-14T01:45:11.644Z,101617.03
2023-05-14T01:47:44.086Z,101613.47
2023-05-14T01:50:17.340Z,101615.50
2023-05-14T01:52:51.433Z,101620.78
2023-05-14T01:55:30.366Z,101611.59
2023-05-14T01:58:02.865Z,101611.59
2023-05-14T02:00:35.558Z,101615.66
2023-05-14T02:03:08.210Z,101608.50
2023-05-14T02:05:40.901Z,101606.16
2023-05-14T02:08:13.624Z,101612.53
2023-05-14T02:10:46.062Z,101615.03
2023-05-14T02:13:18.861Z,101612.22
2023-05-14T02:15:51.696Z,101613.50
2023-05-14T02:18:24.420Z,101615.53
2023-05-14T02:20:57.832Z,101603.22
2023-05-14T02:23:38.222Z,101608.81
2023-05-14T02:26:13.658Z,101604.00
2023-05-14T02:28:46.119Z,101607.28
2023-05-14T02:31:19.499Z,101606.50
2023-05-14T02:33:52.139Z,101605.75
2023-05-14T02:36:26.316Z,101601.38
2023-05-14T02:38:59.934Z,101599.81
2023-05-14T02:41:32.628Z,101589.84
2023-05-14T02:44:05.555Z,101596.72
2023-05-14T02:46:38.111Z,101598.72
2023-05-14T02:49:13.692Z,101598.72
2023-05-14T02:51:46.188Z,101592.34
2023-05-14T02:54:18.829Z,101600.75
2023-05-14T02:56:51.370Z,101594.84
2023-05-14T02:59:24.928Z,101594.84
2023-05-14T03:01:58.119Z,101590.50
2023-05-14T03:04:31.437Z,101590.50
2023-05-14T03:07:03.946Z,101591.72
2023-05-14T03:09:38.289Z,101593.00
2023-05-14T03:12:11.115Z,101590.19
2023-05-14T03:14:46.352Z,101587.09
2023-05-14T03:17:19.156Z,101589.88
2023-05-14T03:19:51.789Z,101593.91
2023-05-14T03:22:24.405Z,101588.31
2023-05-14T03:24:57.075Z,101578.38
2023-05-14T03:27:29.517Z,101579.59
2023-05-14T03:30:02.334Z,101576.03
2023-05-14T03:32:35.544Z,101574.50
2023-05-14T03:35:08.403Z,101573.72
2023-05-14T03:37:41.047Z,101572.16
2023-05-14T03:40:13.618Z,101576.22
2023-05-14T03:42:46.290Z,101577.44
2023-05-14T03:45:18.797Z,101569.03
2023-05-14T03:47:51.367Z,101574.34
2023-05-14T03:50:25.746Z,101565.13
2023-05-14T03:52:58.271Z,101572.78
2023-05-14T03:55:30.847Z,101572.78
2023-05-14T03:58:03.368Z,101572.47
2023-05-14T04:00:36.004Z,101572.00
2023-05-14T04:03:08.698Z,101571.69
2023-05-14T04:05:41.186Z,101574.94
2023-05-14T04:08:13.703Z,101576.97
2023-05-14T04:10:46.262Z,101578.97
2023-05-14T04:13:18.710Z,101578.97
2023-05-14T04:15:51.277Z,101574.66
2023-05-14T04:18:23.954Z,101577.44
2023-05-14T04:20:56.579Z,101570.28
2023-05-14T04:23:29.464Z,101570.28
2023-05-14T04:26:02.098Z,101564.69
2023-05-14T04:28:34.557Z,101574.34
2023-05-14T04:31:07.089Z,101566.41
2023-05-14T04:33:40.072Z,101565.63
2023-05-14T04:36:16.086Z,101565.63
2023-05-14T04:38:48.541Z,101571.22
2023-05-14T04:41:21.174Z,101571.22
2023-05-14T04:43:56.736Z,101571.22
2023-05-14T04:46:29.324Z,101570.47
2023-05-14T04:49:01.872Z,101570.47
2023-05-14T04:51:34.346Z,101575.28
2023-05-14T04:54:10.308Z,101572.94
2023-05-14T04:56:42.730Z,101566.56
2023-05-14T04:59:16.490Z,101580.56
2023-05-14T05:01:49.232Z,101575.44
2023-05-14T05:04:23.846Z,101574.97
2023-05-14T05:06:58.658Z,101575.44
2023-05-14T05:09:31.187Z,101581.03
2023-05-14T05:12:03.974Z,101583.06
2023-05-14T05:14:36.524Z,101583.06
2023-05-14T05:17:09.211Z,101585.88
2023-05-14T05:19:44.156Z,101595.50
2023-05-14T05:22:17.255Z,101599.56
2023-05-14T05:24:50.034Z,101593.97
2023-05-14T05:27:22.784Z,101591.16
2023-05-14T05:29:55.246Z,101587.59
2023-05-14T05:32:27.944Z,101591.16
2023-05-14T05:35:01.217Z,101585.56
2023-05-14T05:37:33.966Z,101582.75
2023-05-14T05:40:07.218Z,101591.16
2023-05-14T05:42:45.668Z,101586.78
2023-05-14T05:45:18.209Z,101582.75
2023-05-14T05:47:50.937Z,101591.16
2023-05-14T05:50:24.513Z,101588.34
2023-05-14T05:52:59.133Z,101588.34
2023-05-14T05:55:33.388Z,101582.00
2023-05-14T05:58:05.793Z,101586.78
2023-05-14T06:00:38.438Z,101594.41
2023-05-14T06:03:11.653Z,101586.78
2023-05-14T06:05:44.450Z,101582.44
2023-05-14T06:08:16.933Z,101585.25
2023-05-14T06:10:49.412Z,101592.06
2023-05-14T06:13:21.863Z,101592.88
2023-05-14T06:15:54.330Z,101600.47
2023-05-14T06:18:27.099Z,101602.50
2023-05-14T06:21:00.428Z,101606.06
2023-05-14T06:23:34.686Z,101608.88
2023-05-14T06:26:07.149Z,101612.94
2023-05-14T06:28:39.767Z,101616.50
2023-05-14T06:31:12.482Z,101613.69
2023-05-14T06:33:45.328Z,101611.69
2023-05-14T06:36:21.823Z,101615.28
2023-05-14T06:38:54.338Z,101610.44
2023-05-14T06:41:26.896Z,101609.19
2023-05-14T06:43:59.624Z,101607.66
2023-05-14T06:46:32.268Z,101610.44
2023-05-14T06:49:04.942Z,101607.66
2023-05-14T06:51:39.162Z,101607.66
2023-05-14T06:54:11.948Z,101605.63
2023-05-14T06:56:44.538Z,101602.03
2023-05-14T06:59:17.266Z,101602.03
2023-05-14T07:01:50.016Z,101602.81
2023-05-14T07:04:22.735Z,101598.78
2023-05-14T07:06:55.397Z,101602.03
2023-05-14T07:09:28.381Z,101598.00
2023-05-14T07:12:00.836Z,101596.75
2023-05-14T07:14:33.429Z,101599.56
2023-05-14T07:17:05.967Z,101596.75
2023-05-14T07:19:38.495Z,101589.13
2023-05-14T07:22:11.127Z,101601.88
2023-05-14T07:24:46.815Z,101599.88
2023-05-14T07:27:19.325Z,101594.25
2023-05-14T07:29:51.873Z,101597.06
2023-05-14T07:32:25.185Z,101598.16
2023-05-14T07:34:57.726Z,101594.56
2023-05-14T07:37:30.457Z,101592.09
2023-05-14T07:40:03.138Z,101602.03
2023-05-14T07:42:37.613Z,101602.03
2023-05-14T07:45:10.631Z,101593.63
2023-05-14T07:47:45.434Z,101593.16
2023-05-14T07:50:18.758Z,101591.91
2023-05-14T07:52:51.380Z,101595.47
2023-05-14T07:55:23.815Z,101589.41
2023-05-14T07:57:56.355Z,101595.78
2023-05-14T08:00:29.055Z,101594.88
2023-05-14T08:03:01.691Z,101596.91
2023-05-14T08:05:34.227Z,101598.44
2023-05-14T08:08:12.570Z,101604.34
2023-05-14T08:10:45.277Z,101602.34
2023-05-14T08:13:17.949Z,101598.31
2023-05-14T08:15:50.553Z,101603.41
2023-05-14T08:18:23.062Z,101607.03
2023-05-14T08:20:56.188Z,101607.34
2023-05-14T08:23:28.616Z,101609.66
2023-05-14T08:26:01.648Z,101602.00
2023-05-14T08:28:34.254Z,101605.63
2023-05-14T08:31:06.956Z,101595.94
2023-05-14T08:33:39.532Z,101599.06
2023-05-14T08:36:11.959Z,101591.41
2023-05-14T08:38:45.446Z,101607.00
2023-05-14T08:41:19.279Z,101601.41
2023-05-14T08:44:14.563Z,101598.91
2023-05-14T08:46:49.263Z,101598.91
2023-05-14T08:49:38.022Z,101597.63
2023-05-14T08:52:11.703Z,101596.41
2023-05-14T08:54:45.613Z,101587.50
2023-05-14T08:57:20.155Z,101581.91
2023-05-14T08:59:55.931Z,101579.91
2023-05-14T09:02:30.496Z,101572.28
2023-05-14T09:05:04.084Z,101570.25
2023-05-14T09:07:36.719Z,101569.00
2023-05-14T09:10:10.096Z,101570.53
2023-05-14T09:12:42.809Z,101560.91
2023-05-14T09:15:15.444Z,101559.34
2023-05-14T09:17:48.717Z,101562.44
2023-05-14T09:20:21.693Z,101562.44
2023-05-14T09:22:54.830Z,101552.78
2023-05-14T09:25:28.258Z,101554.34
2023-05-14T09:28:06.046Z,101556.69
2023-05-14T09:30:41.639Z,101553.38
2023-05-14T09:33:26.208Z,101550.91
2023-05-14T09:36:00.635Z,101548.88
2023-05-14T09:38:34.076Z,101552.47
2023-05-14T09:41:06.608Z,101543.56
2023-05-14T09:43:39.122Z,101538.75
2023-05-14T09:46:11.860Z,101541.88
2023-05-14T09:48:46.105Z,101544.97
2023-05-14T09:51:23.970Z,101544.97
2023-05-14T09:53:57.251Z,101543.25
2023-05-14T09:56:30.716Z,101544.78
2023-05-14T09:59:04.468Z,101539.94
2023-05-14T10:01:37.905Z,101542.28
2023-05-14T10:04:12.020Z,101531.06
2023-05-14T10:06:50.509Z,101536.22
2023-05-14T10:09:28.593Z,101532.44
2023-05-14T10:12:01.602Z,101536.00
2023-05-14T10:14:43.229Z,101534.78
2023-05-14T10:17:18.593Z,101530.72
2023-05-14T10:19:54.484Z,101534.63
2023-05-14T10:22:33.926Z,101526.22
2023-05-14T10:25:07.036Z,101525.72
2023-05-14T10:27:41.102Z,101523.22
2023-05-14T10:30:13.608Z,101528.34
2023-05-14T10:32:46.275Z,101522.28
2023-05-14T10:35:25.450Z,101525.38
2023-05-14T10:37:59.083Z,101522.09
2023-05-14T10:40:31.951Z,101520.84
2023-05-14T10:43:05.263Z,101513.97
2023-05-14T10:45:37.812Z,101514.28
2023-05-14T10:48:10.862Z,101508.97
2023-05-14T10:50:43.599Z,101504.94
2023-05-14T10:53:16.068Z,101503.19
2023-05-14T10:55:48.554Z,101495.56
2023-05-14T10:58:21.488Z,101507.06
2023-05-14T11:00:55.707Z,101496.91
2023-05-14T11:03:34.059Z,101492.38
2023-05-14T11:06:07.951Z,101487.53
2023-05-14T11:08:40.963Z,101497.03
2023-05-14T11:11:13.592Z,101483.31
2023-05-14T11:13:46.352Z,101484.84
2023-05-14T11:16:24.088Z,101486.47
2023-05-14T11:19:06.098Z,101485.47
2023-05-14T11:21:39.142Z,101482.22
2023-05-14T11:24:11.579Z,101478.44
2023-05-14T11:26:45.421Z,101483.56
2023-05-14T11:29:17.974Z,101469.84
2023-05-14T11:31:50.833Z,101471.38
2023-05-14T11:34:23.361Z,101467.34
2023-05-14T11:36:56.119Z,101463.56
2023-05-14T11:39:28.519Z,101463.84
2023-05-14T11:42:20.439Z,101471.81
2023-05-14T11:44:56.679Z,101453.22
2023-05-14T11:47:29.620Z,101454.75
2023-05-14T11:50:02.283Z,101448.69
2023-05-14T11:52:39.959Z,101450.50
2023-05-14T11:55:13.215Z,101452.84
2023-05-14T11:57:45.873Z,101451.91
2023-05-14T12:00:22.220Z,101447.81
2023-05-14T12:02:55.077Z,101444.84
2023-05-14T12:05:27.637Z,101448.69
2023-05-14T12:08:00.321Z,101448.22
2023-05-14T12:10:42.176Z,101436.50
2023-05-14T12:13:18.335Z,101431.94
2023-05-14T12:16:02.548Z,101434.28
2023-05-14T12:18:35.225Z,101434.09
2023-05-14T12:21:08.712Z,101427.97
2023-05-14T12:23:41.284Z,101423.94
2023-05-14T12:26:13.981Z,101420.13
2023-05-14T12:28:47.680Z,101416.84
2023-05-14T12:31:28.518Z,101414.34
2023-05-14T12:34:01.168Z,101408.25
2023-05-14T12:36:33.680Z,101404.47
2023-05-14T12:39:07.513Z,101411.66
2023-05-14T12:41:53.938Z,101409.09
2023-05-14T12:44:27.983Z,101396.63
2023-05-14T12:47:00.831Z,101408.13
2023-05-14T12:49:33.473Z,101398.44
2023-05-14T12:52:26.078Z,101395.16
2023-05-14T12:55:11.869Z,101400.31
2023-05-14T12:57:44.572Z,101394.19
2023-05-14T13:00:19.941Z,101385.28
2023-05-14T13:02:52.521Z,101382.75
2023-05-14T13:05:25.356Z,101385.84
2023-05-14T13:07:59.392Z,101373.34
2023-05-14T13:10:31.935Z,101378.03
2023-05-14T13:13:04.552Z,101371.16
2023-05-14T13:15:37.143Z,101374.25
2023-05-14T13:18:17.660Z,101375.28
2023-05-14T13:20:50.260Z,101363.56
2023-05-14T13:23:22.854Z,101361.81
2023-05-14T13:25:55.673Z,101364.16
2023-05-14T13:28:28.189Z,101360.88
2023-05-14T13:31:20.363Z,101363.16
2023-05-14T13:33:57.923Z,101367.06
2023-05-14T13:36:32.270Z,101361.44
2023-05-14T13:39:27.380Z,101365.28
2023-05-14T13:42:00.120Z,101365.28
2023-05-14T13:44:32.653Z,101368.09
2023-05-14T13:47:20.918Z,101371.69
2023-05-14T13:49:59.343Z,101370.91
2023-05-14T13:52:31.864Z,101354.06
2023-05-14T13:58:27.871Z,101358.13
2023-05-14T14:01:00.501Z,101350.97
2023-05-14T14:03:33.154Z,101352.50
2023-05-14T14:06:06.751Z,101350.97
2023-05-14T14:08:39.420Z,101345.34
2023-05-14T14:11:13.652Z,101340.00
2023-05-14T14:13:47.871Z,101335.94
2023-05-14T14:16:21.663Z,101344.34
2023-05-14T14:18:54.389Z,101337.50
2023-05-14T14:21:27.115Z,101340.59
2023-05-14T14:23:59.600Z,101333.69
2023-05-14T14:26:48.612Z,101332.44
2023-05-14T14:29:28.384Z,101328.34
2023-05-14T14:32:10.035Z,101320.22
2023-05-14T14:34:42.548Z,101325.34
2023-05-14T14:37:58.510Z,101320.50
2023-05-14T14:40:48.687Z,101326.88
2023-05-14T14:43:27.354Z,101322.81
2023-05-14T14:46:00.539Z,101335.59
2023-05-14T14:52:36.765Z,101325.13
2023-05-14T14:55:15.313Z,101321.06
2023-05-14T14:57:47.869Z,101326.69
2023-05-14T15:00:33.822Z,101314.16
2023-05-14T15:06:14.320Z,101316.22
2023-05-14T15:11:44.772Z,101316.97
2023-05-14T15:14:29.425Z,101319.78
2023-05-14T15:17:01.969Z,101311.34
2023-05-14T15:19:35.792Z,101315.44
2023-05-14T15:24:57.921Z,101306.25
2023-05-14T15:27:35.945Z,101304.19
2023-05-14T15:30:09.063Z,101301.88
2023-05-14T15:32:42.093Z,101306.72
2023-05-14T15:35:32.843Z,101309.25
2023-05-14T15:38:11.214Z,101303.63
2023-05-14T15:40:43.802Z,101302.06
2023-05-14T15:46:14.508Z,101302.06
2023-05-14T15:51:55.253Z,101306.16
2023-05-14T15:54:40.094Z,101292.88
2023-05-14T15:57:13.425Z,101295.69
2023-05-14T15:59:52.021Z,101288.81
2023-05-14T16:02:39.957Z,101296.47
2023-05-14T16:05:15.520Z,101297.25
2023-05-14T16:07:54.089Z,101291.63
2023-05-14T16:11:24.094Z,101290.84
2023-05-14T16:14:02.733Z,101292.41
2023-05-14T16:16:54.247Z,101287.53
2023-05-14T16:19:29.571Z,101286.78
2023-05-14T16:22:02.330Z,101296.47
2023-05-14T16:24:56.463Z,101296.47
2023-05-14T16:30:57.209Z,101298.03
2023-05-14T16:33:41.715Z,101286.50
2023-05-14T16:36:19.629Z,101294.94
2023-05-14T16:39:19.918Z,101288.53
2023-05-14T16:45:07.371Z,101292.59
2023-05-14T16:47:48.062Z,101288.53
2023-05-14T16:50:26.217Z,101290.59
2023-05-14T16:53:09.961Z,101286.97
2023-05-14T16:55:50.922Z,101287.78
2023-05-14T16:58:27.483Z,101288.25
2023-05-14T17:01:27.916Z,101285.44
2023-05-14T17:06:59.656Z,101291.06
2023-05-14T17:09:33.266Z,101285.94
2023-05-14T17:12:13.590Z,101287.97
2023-05-14T17:14:46.327Z,101281.59
2023-05-14T17:17:38.134Z,101287.22
2023-05-14T17:20:11.501Z,101287.22
2023-05-14T17:22:52.217Z,101295.63
2023-05-14T17:25:26.654Z,101290.78
2023-05-14T17:31:42.281Z,101292.53
2023-05-14T17:34:21.199Z,101301.75
2023-05-14T17:37:57.877Z,101300.97
2023-05-14T17:40:31.497Z,101296.59
2023-05-14T17:43:04.400Z,101300.69
2023-05-14T17:45:52.495Z,101298.66
2023-05-14T17:48:26.753Z,101296.31
2023-05-14T17:50:59.320Z,101297.59
2023-05-14T17:54:16.392Z,101303.22
2023-05-14T17:57:08.320Z,101310.09
2023-05-14T18:03:08.126Z,101313.41
2023-05-14T18:05:40.988Z,101312.59
2023-05-14T18:08:25.063Z,101319.50
2023-05-14T18:11:54.728Z,101323.84
2023-05-14T18:14:31.521Z,101319.50
2023-05-14T18:17:17.516Z,101320.78
2023-05-14T18:20:00.328Z,101321.53
2023-05-14T18:22:52.375Z,101319.22
2023-05-14T18:25:36.141Z,101320.78
2023-05-14T18:28:09.633Z,101322.03
2023-05-14T18:44:34.967Z,101332.97
2023-05-14T18:47:07.999Z,101338.59
2023-05-14T18:49:42.240Z,101332.22
2023-05-14T18:52:27.350Z,101331.44
2023-05-14T18:55:14.289Z,101337.06
2023-05-14T18:57:47.007Z,101339.06
2023-05-14T19:00:19.884Z,101338.31
2023-05-14T19:03:04.558Z,101335.50
2023-05-14T19:05:43.342Z,101339.56
2023-05-14T19:08:18.633Z,101343.91
2023-05-14T19:11:03.584Z,101345.97
2023-05-14T19:13:36.131Z,101346.72
2023-05-14T19:16:21.104Z,101346.72
2023-05-14T19:18:54.108Z,101354.88
2023-05-14T19:21:42.085Z,101349.25
2023-05-14T19:27:06.995Z,101351.78
2023-05-14T19:29:41.836Z,101355.84
2023-05-14T19:32:26.410Z,101345.88
2023-05-14T19:39:12.322Z,101351.19
2023-05-14T19:41:45.142Z,101360.91
2023-05-14T19:44:56.322Z,101356.50
2023-05-14T19:47:32.046Z,101357.78
2023-05-14T19:50:06.050Z,101361.84
2023-05-14T19:52:47.302Z,101363.09
2023-05-14T19:55:28.329Z,101358.75
2023-05-14T19:58:00.947Z,101358.47
2023-05-14T20:03:41.606Z,101361.00
2023-05-14T20:07:17.587Z,101369.41
2023-05-14T20:14:57.405Z,101359.94
2023-05-14T20:17:32.615Z,101360.41
2023-05-14T20:23:20.691Z,101358.56
2023-05-14T20:26:27.358Z,101362.66
2023-05-14T20:28:58.294Z,101366.72
2023-05-14T20:35:02.805Z,101363.63
2023-05-14T20:40:29.733Z,101368.44
2023-05-14T20:43:05.621Z,101361.78
2023-05-14T20:51:33.115Z,101367.09
2023-05-14T20:54:06.056Z,101374.00
2023-05-14T20:56:38.572Z,101371.19
2023-05-14T20:59:17.344Z,101364.00
2023-05-14T21:01:49.904Z,101366.81
2023-05-14T21:04:32.114Z,101365.28
2023-05-14T21:07:18.619Z,101368.09
2023-05-14T21:10:08.146Z,101360.91
2023-05-14T21:12:49.916Z,101364.22
2023-05-14T21:15:42.398Z,101371.38
2023-05-14T21:18:27.011Z,101362.66
2023-05-14T21:20:59.759Z,101362.66
2023-05-14T21:23:35.138Z,101365.94
2023-05-14T21:26:07.833Z,101361.59
2023-05-14T21:28:40.609Z,101362.88
2023-05-14T21:31:13.237Z,101362.88
2023-05-14T21:33:46.022Z,101359.78
2023-05-14T21:36:23.913Z,101350.09
2023-05-14T21:38:56.545Z,101347.75
2023-05-14T21:41:40.149Z,101352.59
2023-05-14T21:44:14.410Z,101348.25
2023-05-14T21:46:47.530Z,101351.06
2023-05-14T21:49:20.207Z,101347.97
2023-05-14T21:52:21.910Z,101342.34
2023-05-14T21:55:08.698Z,101338.00
2023-05-14T21:57:41.373Z,101334.91
2023-05-14T22:00:24.461Z,101333.34
2023-05-14T22:03:27.231Z,101340.22
2023-05-14T22:14:34.752Z,101326.88
2023-05-14T22:17:07.396Z,101330.97
2023-05-14T22:19:39.908Z,101333.75
2023-05-14T22:22:12.764Z,101328.63
2023-05-14T22:24:45.564Z,101327.06
2023-05-14T22:27:18.926Z,101326.28
2023-05-14T22:29:52.548Z,101321.97
2023-05-14T22:32:25.435Z,101325.53
2023-05-14T22:34:58.014Z,101326.00
2023-05-14T22:40:18.863Z,101322.44
2023-05-14T22:42:53.458Z,101326.50
2023-05-14T22:45:26.234Z,101320.91
2023-05-14T22:47:59.502Z,101314.19
2023-05-14T22:50:44.429Z,101315.75
2023-05-14T22:53:16.990Z,101319.03
2023-05-14T22:55:49.639Z,101315.47
2023-05-14T22:58:37.607Z,101307.53
2023-05-14T23:01:12.238Z,101300.38
2023-05-14T23:03:44.998Z,101311.63
2023-05-14T23:06:19.746Z,101310.06
2023-05-14T23:08:59.281Z,101308.50
2023-05-14T23:11:31.906Z,101300.56
2023-05-14T23:16:53.417Z,101299.03
2023-05-14T23:19:26.656Z,101297.47
2023-05-14T23:21:59.582Z,101293.91
2023-05-14T23:24:32.150Z,101292.34
2023-05-14T23:27:05.567Z,101293.63
2023-05-14T23:29:38.689Z,101295.66
2023-05-14T23:32:14.482Z,101291.28
2023-05-14T23:34:47.340Z,101292.56
2023-05-14T23:37:22.027Z,101290.53
2023-05-14T23:39:54.707Z,101284.16
2023-05-14T23:42:27.324Z,101278.25
2023-05-14T23:45:00.105Z,101273.88
2023-05-14T23:47:33.017Z,101280.75
2023-05-14T23:50:06.069Z,101283.56
2023-05-14T23:55:34.896Z,101277.66
2023-05-14T23:58:16.837Z,101282.50
